Time;durP1;ratioP1;P1;durP2;ratioP2;P2;SDS_P1;SDS_P2;PMS_P1;PMS_P2;Temp;Humidity;BMP_temperature;BMP_pressure;BME280_temperature;BME280_humidity;BME280_pressure;Samples;Min_cycle;Max_cycle;Signal;HPM_P1;HPM_P2
2022/11/06 07:02:09;;;;;;;;;7.00;4.67;;;;;-147.14;100.00;58812.66;5145269;23;45554;-61
2022/11/06 07:04:34;;;;;;;;;6.00;3.00;;;;;-147.14;100.00;58812.66;4991603;28;62715;-61
2022/11/06 07:06:59;;;;;;;;;5.67;5.00;;;;;-147.14;100.00;58812.66;4995810;28;69382;-60
2022/11/06 07:09:29;;;;;;;;;6.00;6.00;;;;;-147.14;100.00;58812.66;4997518;28;74895;-61
2022/11/06 07:11:54;;;;;;;;;8.00;5.00;;;;;-147.14;100.00;58812.66;4994726;28;45376;-60
2022/11/06 07:14:19;;;;;;;;;8.00;6.00;;;;;-147.14;100.00;58812.66;4993049;28;62946;-61
2022/11/06 07:16:45;;;;;;;;;4.67;4.00;;;;;-147.14;100.00;58812.66;4992246;28;57405;-61
2022/11/06 07:19:10;;;;;;;;;7.00;5.33;;;;;-147.14;100.00;58812.66;4997501;28;46033;-60
2022/11/06 07:21:35;;;;;;;;;7.67;5.00;;;;;-147.14;100.00;58812.66;4995755;28;67708;-60
2022/11/06 07:24:01;;;;;;;;;7.00;4.00;;;;;-147.14;100.00;58812.66;4985194;28;45431;-60
2022/11/06 07:26:26;;;;;;;;;7.00;6.00;;;;;-147.14;100.00;58812.66;4998048;28;45998;-61
2022/11/06 07:28:51;;;;;;;;;7.00;5.00;;;;;-147.14;100.00;58812.66;4989333;28;46065;-60
2022/11/06 07:31:17;;;;;;;;;6.00;5.00;;;;;-147.14;100.00;58812.66;4998321;28;64038;-60
2022/11/06 07:33:42;;;;;;;;;8.00;5.00;;;;;-147.14;100.00;58812.66;4991930;28;63606;-61
2022/11/06 07:36:09;;;;;;;;;6.67;5.00;;;;;-147.14;100.00;58812.66;4997826;28;64245;-60
2022/11/06 07:38:36;;;;;;;;;5.33;5.00;;;;;-147.14;100.00;58812.66;4991109;28;46218;-60
2022/11/06 07:41:07;;;;;;;;;6.67;6.67;;;;;-147.14;100.00;58812.66;4989000;28;45588;-60
2022/11/06 07:43:33;;;;;;;;;6.33;6.33;;;;;-147.14;100.00;58812.66;4987337;28;45451;-61
2022/11/06 07:46:00;;;;;;;;;4.00;4.00;;;;;-147.14;100.00;58812.66;4982490;28;45440;-60
2022/11/06 07:48:26;;;;;;;;;6.00;6.00;;;;;-147.14;100.00;58812.66;4987881;28;46218;-60
2022/11/06 07:50:52;;;;;;;;;5.67;5.00;;;;;-147.14;100.00;58812.66;4989305;28;45630;-60
2022/11/06 07:53:17;;;;;;;;;7.67;6.00;;;;;-147.14;100.00;58812.66;4990024;28;61444;-60
2022/11/06 07:56:01;;;;;;;;;9.33;7.33;;;;;-147.14;100.00;58812.66;4988698;28;57129;-60
2022/11/06 07:58:27;;;;;;;;;7.00;6.67;;;;;-147.14;100.00;58812.66;5008604;28;45525;-60
2022/11/06 08:00:55;;;;;;;;;5.67;5.67;;;;;-147.14;100.00;58812.66;4994396;28;45530;-61
2022/11/06 08:03:21;;;;;;;;;5.00;5.00;;;;;-147.14;100.00;58812.66;4994930;28;45448;-60
2022/11/06 08:05:46;;;;;;;;;5.67;4.67;;;;;-147.14;100.00;58812.66;4993116;28;45431;-60
2022/11/06 08:08:12;;;;;;;;;4.67;4.67;;;;;-147.14;100.00;58812.66;4993086;28;69043;-59
2022/11/06 08:10:42;;;;;;;;;4.00;4.00;;;;;-147.14;100.00;58812.66;4992767;28;45436;-61
2022/11/06 08:13:10;;;;;;;;;5.33;4.00;;;;;-147.14;100.00;58812.66;4995222;28;45220;-59
2022/11/06 08:15:37;;;;;;;;;7.67;7.00;;;;;-147.14;100.00;58812.66;4990385;28;45720;-59
2022/11/06 08:18:03;;;;;;;;;6.67;5.33;;;;;-147.14;100.00;58812.66;4996197;28;46320;-61
2022/11/06 08:20:28;;;;;;;;;4.33;4.33;;;;;-147.14;100.00;58812.66;4991549;28;45493;-59
2022/11/06 08:23:00;;;;;;;;;12.67;8.00;;;;;-147.14;100.00;58812.66;4987565;28;62977;-59
2022/11/06 08:25:27;;;;;;;;;5.33;3.67;;;;;-147.14;100.00;58812.66;4990269;28;45465;-59
2022/11/06 08:27:56;;;;;;;;;4.00;4.00;;;;;-147.14;100.00;58812.66;4989107;28;45501;-60
2022/11/06 08:30:22;;;;;;;;;5.00;4.00;;;;;-147.14;100.00;58812.66;4990313;28;45571;-59
2022/11/06 08:32:47;;;;;;;;;7.00;5.00;;;;;-147.14;100.00;58812.66;4989281;28;45321;-60
2022/11/06 08:35:12;;;;;;;;;6.33;4.67;;;;;-147.14;100.00;58812.66;4990370;28;57402;-60
2022/11/06 08:37:38;;;;;;;;;3.00;3.00;;;;;-147.14;100.00;58812.66;4991317;28;46110;-59
2022/11/06 08:40:03;;;;;;;;;6.00;6.00;;;;;-147.14;100.00;58812.66;4992225;28;52918;-60
2022/11/06 08:42:29;;;;;;;;;5.33;4.67;;;;;-147.14;100.00;58812.66;4992769;28;45500;-59
2022/11/06 08:44:54;;;;;;;;;5.00;5.00;;;;;-147.14;100.00;58812.66;4992668;28;45455;-59
2022/11/06 08:47:19;;;;;;;;;9.00;5.33;;;;;-147.14;100.00;58812.66;4989811;28;66705;-59
2022/11/06 08:49:45;;;;;;;;;6.00;5.00;;;;;-147.14;100.00;58812.66;4993483;28;46592;-60
2022/11/06 08:52:10;;;;;;;;;4.67;4.00;;;;;-147.14;100.00;58812.66;5008074;28;45408;-59
2022/11/06 08:54:35;;;;;;;;;6.33;5.00;;;;;-147.14;100.00;58812.66;4991871;28;66752;-59
2022/11/06 08:57:01;;;;;;;;;8.00;6.33;;;;;-147.14;100.00;58812.66;4994611;28;69914;-59
2022/11/06 08:59:26;;;;;;;;;8.00;6.00;;;;;-147.14;100.00;58812.66;4991155;28;60104;-59
2022/11/06 09:01:52;;;;;;;;;7.00;6.00;;;;;-147.14;100.00;58812.66;4993043;28;45495;-59
2022/11/06 09:04:17;;;;;;;;;6.67;5.00;;;;;-147.14;100.00;58812.66;4994138;28;56509;-59
2022/11/06 09:06:42;;;;;;;;;8.00;6.00;;;;;-147.14;100.00;58812.66;4992555;28;45432;-59
2022/11/06 09:09:08;;;;;;;;;5.33;4.33;;;;;-147.14;100.00;58812.66;4994954;28;66972;-60
2022/11/06 09:11:34;;;;;;;;;6.00;6.00;;;;;-147.14;100.00;58812.66;4993587;28;45354;-60
2022/11/06 09:13:59;;;;;;;;;6.33;5.00;;;;;-147.14;100.00;58812.66;4995847;28;45358;-60
2022/11/06 09:16:25;;;;;;;;;6.33;6.00;;;;;-147.14;100.00;58812.66;4994415;28;53745;-60
2022/11/06 09:18:53;;;;;;;;;12.00;8.00;;;;;-147.14;100.00;58812.66;4990562;28;45705;-60
2022/11/06 09:21:18;;;;;;;;;8.00;6.33;;;;;-147.14;100.00;58812.66;4988217;28;45219;-60
2022/11/06 09:23:44;;;;;;;;;8.00;4.00;;;;;-147.14;100.00;58812.66;4979641;28;45290;-60
2022/11/06 09:26:10;;;;;;;;;7.00;7.00;;;;;-147.14;100.00;58812.66;4993440;28;46159;-60
2022/11/06 09:28:35;;;;;;;;;9.00;6.33;;;;;-147.14;100.00;58812.66;4989997;28;59715;-59
2022/11/06 09:31:01;;;;;;;;;9.00;5.00;;;;;-147.14;100.00;58812.66;4996885;28;63231;-60
2022/11/06 09:33:26;;;;;;;;;8.33;6.00;;;;;-147.14;100.00;58812.66;5013621;28;45405;-59
2022/11/06 09:35:51;;;;;;;;;5.00;5.00;;;;;-147.14;100.00;58812.66;4996653;28;72137;-61
2022/11/06 09:38:18;;;;;;;;;8.67;8.67;;;;;-147.14;100.00;58812.66;4992926;28;45908;-59
2022/11/06 09:40:52;;;;;;;;;7.33;5.67;;;;;-147.14;100.00;58812.66;4994403;28;45455;-59
2022/11/06 09:43:49;;;;;;;;;5.67;5.67;;;;;-147.14;100.00;58812.66;4996997;28;45499;-59
2022/11/06 09:46:23;;;;;;;;;11.67;8.00;;;;;-147.14;100.00;58812.66;4996232;28;45610;-59
2022/11/06 09:48:54;;;;;;;;;7.67;6.00;;;;;-147.14;100.00;58812.66;4997795;28;45527;-60
2022/11/06 09:51:37;;;;;;;;;9.33;8.00;;;;;-147.14;100.00;58812.66;4998021;28;45626;-59
2022/11/06 09:54:07;;;;;;;;;13.00;8.67;;;;;-147.14;100.00;58812.66;5012156;28;45372;-59
2022/11/06 09:56:34;;;;;;;;;14.00;10.00;;;;;-147.14;100.00;58812.66;4998033;28;46765;-61
2022/11/06 09:59:03;;;;;;;;;9.00;8.00;;;;;-147.14;100.00;58812.66;5003356;28;45472;-61
2022/11/06 10:01:36;;;;;;;;;11.33;9.00;;;;;-147.14;100.00;58812.66;4994266;28;45257;-60
2022/11/06 10:04:03;;;;;;;;;10.00;8.00;;;;;-147.14;100.00;58812.66;4992997;28;45465;-61
2022/11/06 10:06:29;;;;;;;;;12.33;9.00;;;;;-147.14;100.00;58812.66;4993157;28;46313;-61
2022/11/06 10:09:00;;;;;;;;;11.00;9.00;;;;;-147.14;100.00;58812.66;4995046;28;45375;-62
2022/11/06 10:11:34;;;;;;;;;13.67;8.00;;;;;-147.14;100.00;58812.66;4986150;28;45414;-53
2022/11/06 10:14:12;;;;;;;;;12.67;9.00;;;;;-147.14;100.00;58812.66;4996879;28;45379;-56
2022/11/06 10:16:45;;;;;;;;;11.67;9.67;;;;;-147.14;100.00;58812.66;4997309;28;46332;-52
2022/11/06 10:19:24;;;;;;;;;13.67;9.33;;;;;-147.14;100.00;58812.66;4998005;28;45520;-53
2022/11/06 10:22:01;;;;;;;;;10.33;7.33;;;;;-147.14;100.00;58812.66;4997368;28;45495;-52
2022/11/06 10:24:45;;;;;;;;;11.33;9.67;;;;;-147.14;100.00;58812.66;4997837;28;45456;-51
2022/11/06 10:27:18;;;;;;;;;8.00;7.33;;;;;-147.14;100.00;58812.66;4997929;28;47213;-50
2022/11/06 10:30:00;;;;;;;;;10.00;8.67;;;;;-147.14;100.00;58812.66;4995130;28;45453;-49
2022/11/06 10:32:44;;;;;;;;;9.33;7.67;;;;;-147.14;100.00;58812.66;4998241;28;45364;-49
2022/11/06 10:35:22;;;;;;;;;8.00;6.33;;;;;-147.14;100.00;58812.66;5000101;28;45460;-51
2022/11/06 10:37:55;;;;;;;;;9.67;8.00;;;;;-147.14;100.00;58812.66;4999074;28;46064;-53
2022/11/06 10:40:27;;;;;;;;;10.00;9.00;;;;;-147.14;100.00;58812.66;5001240;28;45420;-51
2022/11/06 10:43:12;;;;;;;;;11.67;7.00;;;;;-147.14;100.00;58812.66;4998848;28;45480;-54
2022/11/06 10:45:40;;;;;;;;;7.67;7.67;;;;;-147.14;100.00;58812.66;4997968;28;45535;-67
2022/11/06 10:48:19;;;;;;;;;13.33;9.00;;;;;-147.14;100.00;58812.66;4999147;28;46039;-61
2022/11/06 10:50:52;;;;;;;;;11.33;11.00;;;;;-147.14;100.00;58812.66;4998849;28;46481;-61
2022/11/06 10:53:23;;;;;;;;;14.33;9.33;;;;;-147.14;100.00;58812.66;4999026;28;45372;-60
2022/11/06 10:56:07;;;;;;;;;9.67;9.67;;;;;-147.14;100.00;58812.66;4998786;28;45386;-61
2022/11/06 10:58:33;;;;;;;;;4.33;4.33;;;;;-147.14;100.00;58812.66;4998429;28;46255;-61
2022/11/06 11:01:01;;;;;;;;;10.33;9.00;;;;;-147.14;100.00;58812.66;5013644;28;60716;-62
2022/11/06 11:03:38;;;;;;;;;11.33;10.00;;;;;-147.14;100.00;58812.66;4998429;28;45464;-61
2022/11/06 11:06:04;;;;;;;;;9.33;8.33;;;;;-147.14;100.00;58812.66;4987633;28;45409;-69
2022/11/06 11:08:29;;;;;;;;;10.67;8.33;;;;;-147.14;100.00;58812.66;4997326;28;46223;-64
2022/11/06 11:11:04;;;;;;;;;8.00;8.00;;;;;-147.14;100.00;58812.66;4986954;28;45362;-64
2022/11/06 11:13:29;;;;;;;;;6.67;6.67;;;;;-147.14;100.00;58812.66;4999719;28;45817;-64
2022/11/06 11:15:55;;;;;;;;;12.33;7.67;;;;;-147.14;100.00;58812.66;4998362;28;70347;-64
2022/11/06 11:18:32;;;;;;;;;11.00;11.00;;;;;-147.14;100.00;58812.66;5014955;28;68050;-64
2022/11/06 11:21:09;;;;;;;;;4.00;4.00;;;;;-147.14;100.00;58812.66;4997026;28;45383;-65
2022/11/06 11:23:34;;;;;;;;;8.00;4.33;;;;;-147.14;100.00;58812.66;5015261;28;45746;-64
2022/11/06 11:26:23;;;;;;;;;11.00;8.67;;;;;-147.14;100.00;58812.66;4997075;28;64095;-60
2022/11/06 11:28:58;;;;;;;;;12.33;11.67;;;;;-147.14;100.00;58812.66;4997207;28;46233;-60
2022/11/06 11:31:34;;;;;;;;;7.33;7.33;;;;;-147.14;100.00;58812.66;4998516;28;45313;-60
2022/11/06 11:34:04;;;;;;;;;11.67;9.67;;;;;-147.14;100.00;58812.66;4995650;28;45428;-60
2022/11/06 11:36:52;;;;;;;;;13.67;11.00;;;;;-147.14;100.00;58812.66;4980082;28;45457;-60
2022/11/06 11:39:20;;;;;;;;;17.00;12.33;;;;;-147.14;100.00;58812.66;5004224;28;47907;-61
2022/11/06 11:41:45;;;;;;;;;14.00;12.00;;;;;-147.14;100.00;58812.66;4997776;28;45421;-61
2022/11/06 11:44:11;;;;;;;;;11.00;7.33;;;;;-147.14;100.00;58812.66;4991749;28;66645;-61
2022/11/06 11:46:51;;;;;;;;;9.00;8.00;;;;;-147.14;100.00;58812.66;4983373;28;45376;-61
2022/11/06 11:49:29;;;;;;;;;12.33;10.33;;;;;-147.14;100.00;58812.66;4993463;28;46802;-60
2022/11/06 11:51:57;;;;;;;;;12.33;11.67;;;;;-147.14;100.00;58812.66;4987978;28;45423;-60
2022/11/06 11:54:27;;;;;;;;;14.67;12.00;;;;;-147.14;100.00;58812.66;4996770;28;45499;-60
2022/11/06 11:56:59;;;;;;;;;12.33;12.33;;;;;-147.14;100.00;58812.66;4988780;28;45560;-60
2022/11/06 11:59:30;;;;;;;;;11.00;11.00;;;;;-147.14;100.00;58812.66;4992259;28;46942;-60
2022/11/06 12:02:01;;;;;;;;;9.00;8.00;;;;;-147.14;100.00;58812.66;4979714;28;45828;-60
2022/11/06 12:04:39;;;;;;;;;9.00;8.33;;;;;-147.14;100.00;58812.66;4987200;28;45434;-60
2022/11/06 12:07:06;;;;;;;;;8.67;8.33;;;;;-147.14;100.00;58812.66;4995473;28;45311;-60
2022/11/06 12:09:43;;;;;;;;;10.33;8.00;;;;;-147.14;100.00;58812.66;4991493;28;45474;-60
2022/11/06 12:12:20;;;;;;;;;11.33;7.00;;;;;-147.14;100.00;58812.66;4993137;28;45358;-60
2022/11/06 12:14:45;;;;;;;;;12.00;9.00;;;;;-147.14;100.00;58812.66;4986523;28;45470;-60
2022/11/06 12:17:21;;;;;;;;;9.67;8.67;;;;;-147.14;100.00;58812.66;4989937;28;70384;-60
2022/11/06 12:19:52;;;;;;;;;10.67;10.00;;;;;-147.14;100.00;58812.66;4998108;28;46056;-60
2022/11/06 12:22:24;;;;;;;;;9.67;7.00;;;;;-147.14;100.00;58812.66;4984048;28;45552;-60
2022/11/06 12:24:58;;;;;;;;;7.33;4.33;;;;;-147.14;100.00;58812.66;5000152;28;45699;-60
2022/11/06 12:27:32;;;;;;;;;7.00;7.00;;;;;-147.14;100.00;58812.66;4993845;28;45317;-61
2022/11/06 12:30:02;;;;;;;;;7.67;7.67;;;;;-147.14;100.00;58812.66;4991850;28;46070;-60
2022/11/06 12:32:46;;;;;;;;;7.33;7.00;;;;;-147.14;100.00;58812.66;4986965;28;45472;-60
2022/11/06 12:35:27;;;;;;;;;9.00;7.00;;;;;-147.14;100.00;58812.66;4988576;28;45600;-60
2022/11/06 12:38:16;;;;;;;;;8.33;7.00;;;;;-147.14;100.00;58812.66;4992319;28;45604;-61
2022/11/06 12:41:02;;;;;;;;;12.00;12.00;;;;;-147.14;100.00;58812.66;4994924;28;45413;-61
2022/11/06 12:43:36;;;;;;;;;11.00;8.33;;;;;-147.14;100.00;58812.66;4988931;28;45302;-61
2022/11/06 12:46:10;;;;;;;;;7.33;7.33;;;;;-147.14;100.00;58812.66;5013349;28;45451;-61
2022/11/06 12:49:00;;;;;;;;;14.00;8.33;;;;;-147.14;100.00;58812.66;4991199;28;45633;-61
2022/11/06 12:51:36;;;;;;;;;9.33;8.67;;;;;-147.14;100.00;58812.66;4994483;28;46254;-61
2022/11/06 12:54:01;;;;;;;;;10.67;8.33;;;;;-147.14;100.00;58812.66;4991008;28;45994;-61
2022/11/06 12:56:30;;;;;;;;;5.67;5.67;;;;;-147.14;100.00;58812.66;4997805;28;45912;-61
2022/11/06 12:59:13;;;;;;;;;10.00;7.67;;;;;-147.14;100.00;58812.66;4995851;28;45588;-61
2022/11/06 13:02:47;;;;;;;;;11.00;9.00;;;;;-147.14;100.00;58812.66;4989280;28;46085;-61
2022/11/06 13:05:12;;;;;;;;;10.33;8.67;;;;;-147.14;100.00;58812.66;4929460;28;45472;-61
2022/11/06 13:07:43;;;;;;;;;9.00;9.00;;;;;-147.14;100.00;58812.66;4937816;28;45483;-61
2022/11/06 13:10:45;;;;;;;;;13.00;9.33;;;;;-147.14;100.00;58812.66;4976156;28;45524;-61
2022/11/06 13:13:43;;;;;;;;;8.67;8.00;;;;;-147.14;100.00;58812.66;4993598;28;46455;-61
2022/11/06 13:16:18;;;;;;;;;14.00;11.33;;;;;-147.14;100.00;58812.66;4949970;28;45509;-63
2022/11/06 13:18:55;;;;;;;;;13.00;9.00;;;;;-147.14;100.00;58812.66;4988455;28;45478;-62
2022/11/06 13:21:49;;;;;;;;;10.67;7.67;;;;;-147.14;100.00;58812.66;4998901;28;45714;-62
2022/11/06 13:24:38;;;;;;;;;8.33;6.00;;;;;-147.14;100.00;58812.66;5006582;28;46216;-60
2022/11/06 13:27:09;;;;;;;;;10.00;9.00;;;;;-147.14;100.00;58812.66;4990761;28;45545;-60
2022/11/06 13:29:36;;;;;;;;;11.67;6.00;;;;;-147.14;100.00;58812.66;4982198;28;46011;-60
2022/11/06 13:32:06;;;;;;;;;6.00;6.00;;;;;-147.14;100.00;58812.66;4989945;28;45624;-61
2022/11/06 13:34:34;;;;;;;;;7.00;7.00;;;;;-147.14;100.00;58812.66;4988221;28;46509;-61
2022/11/06 13:37:00;;;;;;;;;7.00;5.67;;;;;-147.14;100.00;58812.66;4990876;28;45511;-61
2022/11/06 13:39:32;;;;;;;;;9.33;7.00;;;;;-147.14;100.00;58812.66;4992998;28;55380;-62
2022/11/06 13:41:57;;;;;;;;;8.33;7.67;;;;;-147.14;100.00;58812.66;4998235;28;46502;-61
2022/11/06 13:44:23;;;;;;;;;10.33;7.00;;;;;-147.14;100.00;58812.66;4988877;28;46761;-61
2022/11/06 13:47:05;;;;;;;;;9.00;9.00;;;;;-147.14;100.00;58812.66;4988563;28;65585;-61
2022/11/06 13:49:42;;;;;;;;;6.67;6.67;;;;;-147.14;100.00;58812.66;4993869;28;45855;-60
2022/11/06 13:52:26;;;;;;;;;11.33;9.00;;;;;-147.14;100.00;58812.66;4996345;28;45931;-60
2022/11/06 13:54:59;;;;;;;;;13.33;13.33;;;;;-147.14;100.00;58812.66;4990303;28;45474;-61
2022/11/06 13:57:54;;;;;;;;;9.00;7.33;;;;;-147.14;100.00;58812.66;4985174;28;45627;-60
2022/11/06 14:00:22;;;;;;;;;12.00;10.00;;;;;-147.14;100.00;58812.66;4977107;28;45381;-60
2022/11/06 14:03:18;;;;;;;;;12.67;9.00;;;;;-147.14;100.00;58812.66;5001775;28;45728;-61
2022/11/06 14:05:59;;;;;;;;;13.00;8.33;;;;;-147.14;100.00;58812.66;4991151;28;46087;-60
2022/11/06 14:08:55;;;;;;;;;11.67;10.33;;;;;-147.14;100.00;58812.66;4995707;28;45822;-60
2022/11/06 14:11:51;;;;;;;;;13.33;9.67;;;;;-147.14;100.00;58812.66;4984496;28;45817;-61
2022/11/06 14:14:19;;;;;;;;;11.00;9.00;;;;;-147.14;100.00;58812.66;4999240;28;45527;-60
2022/11/06 14:16:46;;;;;;;;;11.33;10.33;;;;;-147.14;100.00;58812.66;4999172;28;45436;-60
2022/11/06 14:19:29;;;;;;;;;9.67;6.67;;;;;-147.14;100.00;58812.66;4994794;28;45480;-60
2022/11/06 14:22:15;;;;;;;;;7.33;7.33;;;;;-147.14;100.00;58812.66;4995784;28;45696;-60
2022/11/06 14:24:41;;;;;;;;;6.00;6.00;;;;;-147.14;100.00;58812.66;4987976;28;45681;-60
2022/11/06 14:27:21;;;;;;;;;9.00;8.00;;;;;-147.14;100.00;58812.66;4996051;28;46136;-60
2022/11/06 14:29:55;;;;;;;;;9.00;6.67;;;;;-147.14;100.00;58812.66;4999448;28;45444;-63
2022/11/06 14:32:41;;;;;;;;;9.00;8.00;;;;;-147.14;100.00;58812.66;4984270;28;45451;-63
2022/11/06 14:35:28;;;;;;;;;10.33;10.00;;;;;-147.14;100.00;58812.66;4989423;28;45758;-61
2022/11/06 14:38:08;;;;;;;;;9.67;9.00;;;;;-147.14;100.00;58812.66;4990748;28;45829;-61
2022/11/06 14:40:35;;;;;;;;;6.00;4.33;;;;;-147.14;100.00;58812.66;4995285;28;45239;-61
2022/11/06 14:43:00;;;;;;;;;8.00;8.00;;;;;-147.14;100.00;58812.66;4993009;28;45637;-61
2022/11/06 14:45:26;;;;;;;;;10.00;10.00;;;;;-147.14;100.00;58812.66;4989084;28;45476;-61
2022/11/06 14:47:55;;;;;;;;;8.00;8.00;;;;;-147.14;100.00;58812.66;5006554;28;46207;-61
2022/11/06 14:50:27;;;;;;;;;8.33;8.33;;;;;-147.14;100.00;58812.66;4982328;28;45547;-61
2022/11/06 14:52:56;;;;;;;;;10.00;9.67;;;;;-147.14;100.00;58812.66;5002998;28;45368;-61
2022/11/06 14:55:36;;;;;;;;;8.00;7.67;;;;;-147.14;100.00;58812.66;4984035;28;45345;-61
2022/11/06 14:58:19;;;;;;;;;15.33;8.67;;;;;-147.14;100.00;58812.66;4995968;28;46220;-61
2022/11/06 15:00:50;;;;;;;;;11.00;8.00;;;;;-147.14;100.00;58812.66;4989183;28;45448;-61
2022/11/06 15:03:48;;;;;;;;;9.00;7.67;;;;;-147.14;100.00;58812.66;4996407;28;45352;-64
2022/11/06 15:06:16;;;;;;;;;9.00;8.33;;;;;-147.14;100.00;58812.66;4987239;28;45796;-60
2022/11/06 15:08:48;;;;;;;;;8.00;7.00;;;;;-147.14;100.00;58812.66;4985647;28;45518;-61
2022/11/06 15:11:28;;;;;;;;;8.00;8.00;;;;;-147.14;100.00;58812.66;4996434;28;45305;-67
2022/11/06 15:13:53;;;;;;;;;7.67;7.33;;;;;-147.14;100.00;58812.66;4989911;28;47166;-64
2022/11/06 15:16:20;;;;;;;;;8.67;8.67;;;;;-147.14;100.00;58812.66;4998616;28;45434;-61
2022/11/06 15:18:45;;;;;;;;;9.00;8.00;;;;;-147.14;100.00;58812.66;4995526;28;46591;-65
2022/11/06 15:21:17;;;;;;;;;5.00;5.00;;;;;-147.14;100.00;58812.66;5014756;28;45293;-68
2022/11/06 15:24:02;;;;;;;;;9.00;8.00;;;;;-147.14;100.00;58812.66;4998483;28;45504;-69
2022/11/06 15:26:32;;;;;;;;;7.67;7.67;;;;;-147.14;100.00;58812.66;4997865;28;45483;-68
2022/11/06 15:28:58;;;;;;;;;6.33;6.33;;;;;-147.14;100.00;58812.66;4988839;28;45661;-70
2022/11/06 15:31:23;;;;;;;;;9.33;6.67;;;;;-147.14;100.00;58812.66;4988771;28;45404;-72
2022/11/06 15:34:00;;;;;;;;;8.00;8.00;;;;;-147.14;100.00;58812.66;4994452;28;55497;-69
2022/11/06 15:36:27;;;;;;;;;8.67;7.00;;;;;-147.14;100.00;58812.66;4993640;28;45598;-69
2022/11/06 15:38:52;;;;;;;;;13.67;9.33;;;;;-147.14;100.00;58812.66;5008938;28;45412;-71
2022/11/06 15:41:23;;;;;;;;;7.00;7.00;;;;;-147.14;100.00;58812.66;4992893;28;65394;-72
2022/11/06 15:43:51;;;;;;;;;9.00;7.33;;;;;-147.14;100.00;58812.66;4998151;28;45379;-68
2022/11/06 15:46:26;;;;;;;;;8.00;8.00;;;;;-147.14;100.00;58812.66;4993146;28;45580;-68
2022/11/06 15:49:16;;;;;;;;;7.33;7.33;;;;;-147.14;100.00;58812.66;4992004;28;46287;-68
2022/11/06 15:51:51;;;;;;;;;8.67;6.33;;;;;-147.14;100.00;58812.66;4993716;28;45397;-66
2022/11/06 15:54:36;;;;;;;;;10.00;7.33;;;;;-147.14;100.00;58812.66;4999321;28;45408;-71
2022/11/06 15:57:04;;;;;;;;;8.33;8.33;;;;;-147.14;100.00;58812.66;4996013;28;45608;-63
2022/11/06 15:59:29;;;;;;;;;8.00;6.67;;;;;-147.14;100.00;58812.66;4988220;28;45548;-62
2022/11/06 16:01:54;;;;;;;;;5.00;5.00;;;;;-147.14;100.00;58812.66;4979140;28;54905;-64
2022/11/06 16:04:23;;;;;;;;;8.00;6.00;;;;;-147.14;100.00;58812.66;4974749;28;68042;-64
2022/11/06 16:06:50;;;;;;;;;7.00;7.00;;;;;-147.14;100.00;58812.66;4950568;28;45735;-63
2022/11/06 16:09:21;;;;;;;;;7.00;7.00;;;;;-147.14;100.00;58812.66;4965296;28;45740;-63
2022/11/06 16:11:49;;;;;;;;;8.33;7.33;;;;;-147.14;100.00;58812.66;4948177;28;45505;-64
2022/11/06 16:14:14;;;;;;;;;10.00;7.67;;;;;-147.14;100.00;58812.66;4974415;28;45676;-67
2022/11/06 16:16:43;;;;;;;;;8.33;7.67;;;;;-147.14;100.00;58812.66;4978945;28;45663;-63
2022/11/06 16:19:18;;;;;;;;;8.67;8.67;;;;;-147.14;100.00;58812.66;4964450;28;45486;-65
2022/11/06 16:21:51;;;;;;;;;9.00;7.67;;;;;-147.14;100.00;58812.66;4976181;28;46840;-75
2022/11/06 16:24:16;;;;;;;;;9.00;7.00;;;;;-147.14;100.00;58812.66;4976195;28;45584;-75
2022/11/06 16:26:51;;;;;;;;;9.00;7.33;;;;;-147.14;100.00;58812.66;4976648;28;45393;-76
2022/11/06 16:29:19;;;;;;;;;7.00;6.00;;;;;-147.14;100.00;58812.66;4948354;28;45500;-74
2022/11/06 16:31:44;;;;;;;;;7.33;7.00;;;;;-147.14;100.00;58812.66;4972712;28;45721;-71
2022/11/06 16:34:32;;;;;;;;;10.67;10.33;;;;;-147.14;100.00;58812.66;4972542;28;45445;-72
2022/11/06 16:37:00;;;;;;;;;10.00;7.67;;;;;-147.14;100.00;58812.66;4976189;28;45497;-72
2022/11/06 16:39:25;;;;;;;;;12.00;10.67;;;;;-147.14;100.00;58812.66;4957390;28;47252;-72
2022/11/06 16:41:56;;;;;;;;;10.00;9.67;;;;;-147.14;100.00;58812.66;4973376;28;45973;-71
2022/11/06 16:44:24;;;;;;;;;8.00;8.00;;;;;-147.14;100.00;58812.66;4978838;28;45405;-71
2022/11/06 16:47:08;;;;;;;;;14.00;11.00;;;;;-147.14;100.00;58812.66;4957510;28;45452;-71
2022/11/06 16:49:35;;;;;;;;;12.00;10.67;;;;;-147.14;100.00;58812.66;4971365;28;45469;-72
2022/11/06 16:52:00;;;;;;;;;12.00;10.67;;;;;-147.14;100.00;58812.66;4971292;28;45662;-70
2022/11/06 16:54:27;;;;;;;;;11.33;11.00;;;;;-147.14;100.00;58812.66;4959142;28;45648;-69
2022/11/06 16:56:53;;;;;;;;;13.00;12.67;;;;;-147.14;100.00;58812.66;4973345;28;45425;-69
2022/11/06 16:59:23;;;;;;;;;14.00;13.00;;;;;-147.14;100.00;58812.66;4974666;28;46394;-69
2022/11/06 17:01:49;;;;;;;;;12.00;11.00;;;;;-147.14;100.00;58812.66;4983487;28;45819;-69
2022/11/06 17:04:23;;;;;;;;;16.33;13.00;;;;;-147.14;100.00;58812.66;4994007;28;66208;-69
2022/11/06 17:06:49;;;;;;;;;12.67;12.00;;;;;-147.14;100.00;58812.66;4986424;28;45464;-69
2022/11/06 17:09:34;;;;;;;;;14.00;11.67;;;;;-147.14;100.00;58812.66;4993984;28;45459;-69
2022/11/06 17:12:01;;;;;;;;;13.67;11.00;;;;;-147.14;100.00;58812.66;4993470;28;45450;-69
2022/11/06 17:14:27;;;;;;;;;4.00;4.00;;;;;-147.14;100.00;58812.66;4996158;28;45361;-68
2022/11/06 17:16:56;;;;;;;;;14.00;11.67;;;;;-147.14;100.00;58812.66;4989019;28;45334;-68
2022/11/06 17:19:22;;;;;;;;;15.67;11.67;;;;;-147.14;100.00;58812.66;4988713;28;47486;-72
2022/11/06 17:21:48;;;;;;;;;12.33;10.33;;;;;-147.14;100.00;58812.66;4991877;28;46296;-70
2022/11/06 17:24:13;;;;;;;;;17.67;14.33;;;;;-147.14;100.00;58812.66;4989488;28;45596;-69
2022/11/06 17:26:46;;;;;;;;;15.33;12.00;;;;;-147.14;100.00;58812.66;4990815;28;65185;-65
2022/11/06 17:29:12;;;;;;;;;12.00;12.00;;;;;-147.14;100.00;58812.66;4986372;28;45665;-74
2022/11/06 17:31:38;;;;;;;;;12.33;12.00;;;;;-147.14;100.00;58812.66;4987046;28;45744;-59
2022/11/06 17:34:03;;;;;;;;;8.00;8.00;;;;;-147.14;100.00;58812.66;4989273;28;45594;-55
2022/11/06 17:36:29;;;;;;;;;11.33;11.33;;;;;-147.14;100.00;58812.66;4985676;28;45977;-59
2022/11/06 17:38:56;;;;;;;;;12.00;10.00;;;;;-147.14;100.00;58812.66;4984237;28;46484;-52
2022/11/06 17:41:28;;;;;;;;;10.00;10.00;;;;;-147.14;100.00;58812.66;4989314;28;45419;-52
2022/11/06 17:43:58;;;;;;;;;12.33;9.00;;;;;-147.14;100.00;58812.66;4993618;28;45332;-51
2022/11/06 17:46:41;;;;;;;;;13.33;11.00;;;;;-147.14;100.00;58812.66;4992383;28;45715;-53
2022/11/06 17:49:07;;;;;;;;;11.33;10.00;;;;;-147.14;100.00;58812.66;4990137;28;46062;-53
2022/11/06 17:51:48;;;;;;;;;12.00;11.67;;;;;-147.14;100.00;58812.66;4991253;28;45771;-51
2022/11/06 17:54:15;;;;;;;;;13.00;12.33;;;;;-147.14;100.00;58812.66;4992778;28;45526;-64
2022/11/06 17:56:41;;;;;;;;;12.00;11.00;;;;;-147.14;100.00;58812.66;4997507;28;45451;-61
2022/11/06 17:59:10;;;;;;;;;11.00;11.00;;;;;-147.14;100.00;58812.66;4989447;28;46074;-62
2022/11/06 18:01:35;;;;;;;;;13.00;12.00;;;;;-147.14;100.00;58812.66;4992124;28;45369;-62
2022/11/06 18:04:01;;;;;;;;;13.00;12.00;;;;;-147.14;100.00;58812.66;4981113;28;65860;-60
2022/11/06 18:06:27;;;;;;;;;10.67;10.67;;;;;-147.14;100.00;58812.66;4990731;28;46810;-60
2022/11/06 18:08:56;;;;;;;;;14.33;12.33;;;;;-147.14;100.00;58812.66;4993068;28;46037;-61
2022/11/06 18:11:22;;;;;;;;;10.00;10.00;;;;;-147.14;100.00;58812.66;4994553;28;45930;-61
2022/11/06 18:13:47;;;;;;;;;13.00;11.00;;;;;-147.14;100.00;58812.66;4993592;28;45480;-60
2022/11/06 18:16:15;;;;;;;;;17.33;11.00;;;;;-147.14;100.00;58812.66;4989897;28;66093;-66
2022/11/06 18:18:40;;;;;;;;;11.67;7.67;;;;;-147.14;100.00;58812.66;4996507;28;46652;-73
2022/11/06 18:21:06;;;;;;;;;14.00;10.33;;;;;-147.14;100.00;58812.66;4992701;28;46817;-58
2022/11/06 18:23:31;;;;;;;;;12.33;10.67;;;;;-147.14;100.00;58812.66;4993551;28;54331;-66
2022/11/06 18:25:57;;;;;;;;;16.00;12.33;;;;;-147.14;100.00;58812.66;4996533;28;64835;-65